sensor_id;sensor_type;location;lat;lon;timestamp;pressure;altitude;pressure_sealevel;temperature;humidity
43480;BME280;29067;35.492;-97.520;2023-02-13T00:00:55;96971.17;;;13.28;21.43
43480;BME280;29067;35.492;-97.520;2023-02-13T00:03:23;96967.00;;;14.65;20.80
43480;BME280;29067;35.492;-97.520;2023-02-13T00:05:51;96966.42;;;13.63;21.21
43480;BME280;29067;35.492;-97.520;2023-02-13T00:08:20;96959.02;;;14.76;20.77
43480;BME280;29067;35.492;-97.520;2023-02-13T00:10:48;96955.53;;;13.08;21.60
43480;BME280;29067;35.492;-97.520;2023-02-13T00:13:21;96959.95;;;12.93;21.78
43480;BME280;29067;35.492;-97.520;2023-02-13T00:15:55;96968.59;;;12.61;22.38
43480;BME280;29067;35.492;-97.520;2023-02-13T00:18:24;96977.17;;;12.29;22.81
43480;BME280;29067;35.492;-97.520;2023-02-13T00:21:02;96977.94;;;12.11;22.79
43480;BME280;29067;35.492;-97.520;2023-02-13T00:23:32;96977.36;;;12.84;22.41
43480;BME280;29067;35.492;-97.520;2023-02-13T00:26:06;96984.47;;;12.73;22.69
43480;BME280;29067;35.492;-97.520;2023-02-13T00:28:34;96987.85;;;11.82;23.52
43480;BME280;29067;35.492;-97.520;2023-02-13T00:31:10;96987.08;;;12.09;23.06
43480;BME280;29067;35.492;-97.520;2023-02-13T00:33:39;96988.71;;;12.06;23.47
43480;BME280;29067;35.492;-97.520;2023-02-13T00:36:10;97005.13;;;10.37;24.14
43480;BME280;29067;35.492;-97.520;2023-02-13T00:38:40;96998.34;;;11.83;23.75
43480;BME280;29067;35.492;-97.520;2023-02-13T00:41:08;96999.12;;;12.09;23.57
43480;BME280;29067;35.492;-97.520;2023-02-13T00:43:38;97003.63;;;11.29;23.84
43480;BME280;29067;35.492;-97.520;2023-02-13T00:46:07;97002.93;;;11.73;24.07
43480;BME280;29067;35.492;-97.520;2023-02-13T00:48:34;97004.98;;;11.09;24.25
43480;BME280;29067;35.492;-97.520;2023-02-13T00:51:05;97001.96;;;12.10;23.58
43480;BME280;29067;35.492;-97.520;2023-02-13T00:53:34;97006.38;;;11.97;23.79
43480;BME280;29067;35.492;-97.520;2023-02-13T00:56:04;97003.82;;;12.57;23.38
43480;BME280;29067;35.492;-97.520;2023-02-13T00:58:33;97016.33;;;11.56;23.73
43480;BME280;29067;35.492;-97.520;2023-02-13T01:01:02;97022.67;;;10.91;24.08
43480;BME280;29067;35.492;-97.520;2023-02-13T01:03:31;97020.41;;;11.38;23.96
43480;BME280;29067;35.492;-97.520;2023-02-13T01:06:05;97024.28;;;11.30;24.41
43480;BME280;29067;35.492;-97.520;2023-02-13T01:08:37;97024.52;;;11.33;24.15
43480;BME280;29067;35.492;-97.520;2023-02-13T01:11:07;97031.68;;;12.07;24.23
43480;BME280;29067;35.492;-97.520;2023-02-13T01:13:35;97035.51;;;11.15;24.46
43480;BME280;29067;35.492;-97.520;2023-02-13T01:16:02;97044.04;;;10.75;24.77
43480;BME280;29067;35.492;-97.520;2023-02-13T01:18:30;97045.25;;;11.04;24.53
43480;BME280;29067;35.492;-97.520;2023-02-13T01:21:13;97037.53;;;12.78;23.57
43480;BME280;29067;35.492;-97.520;2023-02-13T01:23:42;97041.30;;;12.18;23.87
43480;BME280;29067;35.492;-97.520;2023-02-13T01:26:14;97044.70;;;12.48;23.77
43480;BME280;29067;35.492;-97.520;2023-02-13T01:28:44;97044.07;;;12.09;23.76
43480;BME280;29067;35.492;-97.520;2023-02-13T01:31:13;97045.93;;;12.09;23.80
43480;BME280;29067;35.492;-97.520;2023-02-13T01:33:51;97057.86;;;10.44;25.34
43480;BME280;29067;35.492;-97.520;2023-02-13T01:36:21;97052.21;;;11.58;24.45
43480;BME280;29067;35.492;-97.520;2023-02-13T01:38:53;97057.16;;;11.68;24.17
43480;BME280;29067;35.492;-97.520;2023-02-13T01:41:28;97052.56;;;11.70;24.11
43480;BME280;29067;35.492;-97.520;2023-02-13T01:43:58;97061.02;;;10.73;24.81
43480;BME280;29067;35.492;-97.520;2023-02-13T01:46:30;97062.55;;;11.11;24.82
43480;BME280;29067;35.492;-97.520;2023-02-13T01:49:02;97064.91;;;11.44;24.81
43480;BME280;29067;35.492;-97.520;2023-02-13T01:51:33;97066.69;;;11.19;24.40
43480;BME280;29067;35.492;-97.520;2023-02-13T01:54:05;97059.62;;;13.13;23.63
43480;BME280;29067;35.492;-97.520;2023-02-13T01:56:37;97062.52;;;12.00;23.75
43480;BME280;29067;35.492;-97.520;2023-02-13T01:59:11;97075.64;;;11.01;24.56
43480;BME280;29067;35.492;-97.520;2023-02-13T02:01:40;97076.92;;;9.63;25.52
43480;BME280;29067;35.492;-97.520;2023-02-13T02:04:11;97080.04;;;9.37;26.32
43480;BME280;29067;35.492;-97.520;2023-02-13T02:06:43;97078.12;;;10.17;25.76
43480;BME280;29067;35.492;-97.520;2023-02-13T02:09:16;97077.15;;;10.61;25.34
43480;BME280;29067;35.492;-97.520;2023-02-13T02:11:50;97081.62;;;8.64;26.63
43480;BME280;29067;35.492;-97.520;2023-02-13T02:14:19;97076.21;;;9.31;26.48
43480;BME280;29067;35.492;-97.520;2023-02-13T02:16:48;97077.48;;;11.62;25.18
43480;BME280;29067;35.492;-97.520;2023-02-13T02:19:22;97074.90;;;9.39;26.36
43480;BME280;29067;35.492;-97.520;2023-02-13T02:22:28;97072.10;;;10.35;26.03
43480;BME280;29067;35.492;-97.520;2023-02-13T02:25:22;97078.95;;;9.27;26.11
43480;BME280;29067;35.492;-97.520;2023-02-13T02:28:18;97079.30;;;8.71;26.49
43480;BME280;29067;35.492;-97.520;2023-02-13T02:33:54;97092.23;;;11.57;25.37
43480;BME280;29067;35.492;-97.520;2023-02-13T02:36:35;97095.88;;;10.61;25.68
43480;BME280;29067;35.492;-97.520;2023-02-13T02:39:13;97104.44;;;10.96;25.26
43480;BME280;29067;35.492;-97.520;2023-02-13T02:41:56;97104.84;;;11.07;25.24
43480;BME280;29067;35.492;-97.520;2023-02-13T02:44:34;97108.97;;;11.25;24.82
43480;BME280;29067;35.492;-97.520;2023-02-13T02:47:16;97109.52;;;10.81;25.76
43480;BME280;29067;35.492;-97.520;2023-02-13T02:49:59;97113.06;;;9.79;25.98
43480;BME280;29067;35.492;-97.520;2023-02-13T02:52:40;97111.00;;;10.29;26.02
43480;BME280;29067;35.492;-97.520;2023-02-13T02:55:18;97113.68;;;10.49;26.06
43480;BME280;29067;35.492;-97.520;2023-02-13T02:57:54;97115.84;;;10.44;25.75
43480;BME280;29067;35.492;-97.520;2023-02-13T03:00:28;97122.25;;;9.54;26.36
43480;BME280;29067;35.492;-97.520;2023-02-13T03:03:00;97125.26;;;10.62;25.78
43480;BME280;29067;35.492;-97.520;2023-02-13T03:05:30;97129.98;;;10.70;26.24
43480;BME280;29067;35.492;-97.520;2023-02-13T03:08:03;97131.61;;;11.17;25.95
43480;BME280;29067;35.492;-97.520;2023-02-13T03:10:34;97133.67;;;10.08;26.21
43480;BME280;29067;35.492;-97.520;2023-02-13T03:13:06;97141.71;;;10.15;25.98
43480;BME280;29067;35.492;-97.520;2023-02-13T03:15:39;97142.70;;;9.94;26.77
43480;BME280;29067;35.492;-97.520;2023-02-13T03:18:08;97144.16;;;10.25;26.36
43480;BME280;29067;35.492;-97.520;2023-02-13T03:20:45;97143.88;;;10.41;26.35
43480;BME280;29067;35.492;-97.520;2023-02-13T03:23:24;97142.85;;;10.66;25.73
43480;BME280;29067;35.492;-97.520;2023-02-13T03:26:09;97146.10;;;10.76;27.51
43480;BME280;29067;35.492;-97.520;2023-02-13T03:28:47;97146.38;;;10.61;27.13
43480;BME280;29067;35.492;-97.520;2023-02-13T03:31:26;97145.11;;;10.49;25.80
43480;BME280;29067;35.492;-97.520;2023-02-13T03:34:00;97143.95;;;11.04;25.78
43480;BME280;29067;35.492;-97.520;2023-02-13T03:36:40;97147.97;;;10.54;26.13
43480;BME280;29067;35.492;-97.520;2023-02-13T03:39:17;97151.13;;;10.23;26.45
43480;BME280;29067;35.492;-97.520;2023-02-13T03:41:50;97146.05;;;10.84;25.95
43480;BME280;29067;35.492;-97.520;2023-02-13T03:44:26;97149.85;;;11.24;25.70
43480;BME280;29067;35.492;-97.520;2023-02-13T03:46:57;97154.64;;;10.39;26.23
43480;BME280;29067;35.492;-97.520;2023-02-13T03:49:30;97154.57;;;10.38;26.67
43480;BME280;29067;35.492;-97.520;2023-02-13T03:52:03;97159.44;;;10.48;27.07
43480;BME280;29067;35.492;-97.520;2023-02-13T03:54:38;97207.83;;;8.67;27.37
43480;BME280;29067;35.492;-97.520;2023-02-13T03:57:10;97196.37;;;9.41;27.55
43480;BME280;29067;35.492;-97.520;2023-02-13T03:59:40;97206.80;;;9.31;27.54
43480;BME280;29067;35.492;-97.520;2023-02-13T04:02:13;97212.16;;;9.63;27.14
43480;BME280;29067;35.492;-97.520;2023-02-13T04:04:50;97216.18;;;8.83;27.51
43480;BME280;29067;35.492;-97.520;2023-02-13T04:07:21;97231.10;;;7.07;29.92
43480;BME280;29067;35.492;-97.520;2023-02-13T04:09:51;97208.59;;;9.09;28.48
43480;BME280;29067;35.492;-97.520;2023-02-13T04:12:20;97197.82;;;9.94;28.03
43480;BME280;29067;35.492;-97.520;2023-02-13T04:14:56;97187.98;;;10.19;27.87
43480;BME280;29067;35.492;-97.520;2023-02-13T04:17:30;97191.94;;;10.59;27.32
43480;BME280;29067;35.492;-97.520;2023-02-13T04:20:00;97201.02;;;10.50;27.77
43480;BME280;29067;35.492;-97.520;2023-02-13T04:22:28;97205.72;;;9.66;27.87
43480;BME280;29067;35.492;-97.520;2023-02-13T04:24:57;97209.48;;;9.70;28.22
43480;BME280;29067;35.492;-97.520;2023-02-13T04:27:26;97208.32;;;9.93;28.20
43480;BME280;29067;35.492;-97.520;2023-02-13T04:29:55;97208.60;;;9.89;28.34
43480;BME280;29067;35.492;-97.520;2023-02-13T04:32:23;97207.36;;;8.56;29.31
43480;BME280;29067;35.492;-97.520;2023-02-13T04:34:51;97210.61;;;9.04;29.37
43480;BME280;29067;35.492;-97.520;2023-02-13T04:37:19;97212.22;;;9.46;29.07
43480;BME280;29067;35.492;-97.520;2023-02-13T04:39:47;97215.44;;;8.85;29.58
43480;BME280;29067;35.492;-97.520;2023-02-13T04:42:15;97209.67;;;8.92;29.31
43480;BME280;29067;35.492;-97.520;2023-02-13T04:44:43;97212.26;;;8.36;29.49
43480;BME280;29067;35.492;-97.520;2023-02-13T04:47:11;97214.31;;;9.22;29.08
43480;BME280;29067;35.492;-97.520;2023-02-13T04:49:39;97219.78;;;10.01;29.08
43480;BME280;29067;35.492;-97.520;2023-02-13T04:52:07;97225.23;;;9.90;28.11
43480;BME280;29067;35.492;-97.520;2023-02-13T04:54:34;97228.84;;;9.51;28.32
43480;BME280;29067;35.492;-97.520;2023-02-13T04:57:02;97230.38;;;10.05;28.86
43480;BME280;29067;35.492;-97.520;2023-02-13T04:59:30;97224.57;;;11.06;27.74
43480;BME280;29067;35.492;-97.520;2023-02-13T05:01:58;97231.16;;;9.88;28.89
43480;BME280;29067;35.492;-97.520;2023-02-13T05:04:26;97223.94;;;10.73;27.91
43480;BME280;29067;35.492;-97.520;2023-02-13T05:06:55;97225.12;;;10.64;28.10
43480;BME280;29067;35.492;-97.520;2023-02-13T05:09:22;97225.33;;;9.90;28.51
43480;BME280;29067;35.492;-97.520;2023-02-13T05:11:51;97232.79;;;10.07;28.33
43480;BME280;29067;35.492;-97.520;2023-02-13T05:14:20;97231.69;;;10.45;28.11
43480;BME280;29067;35.492;-97.520;2023-02-13T05:16:49;97229.61;;;10.36;28.77
43480;BME280;29067;35.492;-97.520;2023-02-13T05:19:16;97230.47;;;10.25;28.85
43480;BME280;29067;35.492;-97.520;2023-02-13T05:21:44;97232.28;;;10.05;28.71
43480;BME280;29067;35.492;-97.520;2023-02-13T05:24:12;97239.77;;;8.59;29.74
43480;BME280;29067;35.492;-97.520;2023-02-13T05:26:40;97243.43;;;8.91;29.08
43480;BME280;29067;35.492;-97.520;2023-02-13T05:29:09;97245.52;;;8.69;29.30
43480;BME280;29067;35.492;-97.520;2023-02-13T05:31:38;97244.81;;;9.47;28.86
43480;BME280;29067;35.492;-97.520;2023-02-13T05:34:06;97239.87;;;8.97;29.33
43480;BME280;29067;35.492;-97.520;2023-02-13T05:36:34;97238.61;;;8.89;29.53
43480;BME280;29067;35.492;-97.520;2023-02-13T05:39:02;97240.63;;;8.51;30.05
43480;BME280;29067;35.492;-97.520;2023-02-13T05:41:31;97247.13;;;9.00;30.01
43480;BME280;29067;35.492;-97.520;2023-02-13T05:43:59;97251.33;;;8.03;30.52
43480;BME280;29067;35.492;-97.520;2023-02-13T05:46:27;97251.12;;;8.32;30.84
43480;BME280;29067;35.492;-97.520;2023-02-13T05:48:54;97254.05;;;7.51;30.60
43480;BME280;29067;35.492;-97.520;2023-02-13T05:51:22;97252.76;;;8.55;30.49
43480;BME280;29067;35.492;-97.520;2023-02-13T05:53:50;97252.08;;;9.32;30.31
43480;BME280;29067;35.492;-97.520;2023-02-13T05:56:18;97251.20;;;9.73;29.33
43480;BME280;29067;35.492;-97.520;2023-02-13T05:58:46;97251.27;;;9.93;29.40
43480;BME280;29067;35.492;-97.520;2023-02-13T06:01:14;97253.28;;;9.16;30.40
43480;BME280;29067;35.492;-97.520;2023-02-13T06:03:42;97256.38;;;9.75;29.97
43480;BME280;29067;35.492;-97.520;2023-02-13T06:06:10;97259.14;;;9.98;28.79
43480;BME280;29067;35.492;-97.520;2023-02-13T06:08:37;97265.89;;;7.77;29.75
43480;BME280;29067;35.492;-97.520;2023-02-13T06:11:06;97262.00;;;9.75;29.30
43480;BME280;29067;35.492;-97.520;2023-02-13T06:13:34;97261.35;;;9.57;29.68
43480;BME280;29067;35.492;-97.520;2023-02-13T06:16:02;97261.37;;;10.67;28.97
43480;BME280;29067;35.492;-97.520;2023-02-13T06:18:30;97257.96;;;10.89;29.73
43480;BME280;29067;35.492;-97.520;2023-02-13T06:20:59;97257.55;;;11.00;29.24
43480;BME280;29067;35.492;-97.520;2023-02-13T06:23:27;97258.28;;;10.66;29.93
43480;BME280;29067;35.492;-97.520;2023-02-13T06:25:55;97259.05;;;10.91;29.25
43480;BME280;29067;35.492;-97.520;2023-02-13T06:28:23;97261.59;;;10.57;29.36
43480;BME280;29067;35.492;-97.520;2023-02-13T06:30:50;97263.30;;;11.27;29.85
43480;BME280;29067;35.492;-97.520;2023-02-13T06:33:19;97268.97;;;9.60;29.48
43480;BME280;29067;35.492;-97.520;2023-02-13T06:35:47;97268.25;;;11.12;29.16
43480;BME280;29067;35.492;-97.520;2023-02-13T06:38:15;97269.46;;;9.73;29.68
43480;BME280;29067;35.492;-97.520;2023-02-13T06:40:43;97272.54;;;9.97;28.76
43480;BME280;29067;35.492;-97.520;2023-02-13T06:43:11;97280.94;;;9.78;29.55
43480;BME280;29067;35.492;-97.520;2023-02-13T06:45:46;97285.78;;;9.23;29.62
43480;BME280;29067;35.492;-97.520;2023-02-13T06:48:15;97295.29;;;8.99;30.63
43480;BME280;29067;35.492;-97.520;2023-02-13T06:50:43;97303.59;;;8.16;30.84
43480;BME280;29067;35.492;-97.520;2023-02-13T06:53:11;97306.27;;;8.55;30.81
43480;BME280;29067;35.492;-97.520;2023-02-13T06:55:39;97306.88;;;8.01;31.52
43480;BME280;29067;35.492;-97.520;2023-02-13T06:58:07;97306.44;;;9.01;30.18
43480;BME280;29067;35.492;-97.520;2023-02-13T07:00:35;97307.46;;;9.66;30.40
43480;BME280;29067;35.492;-97.520;2023-02-13T07:03:04;97313.37;;;8.34;31.39
43480;BME280;29067;35.492;-97.520;2023-02-13T07:05:33;97313.21;;;7.03;31.50
43480;BME280;29067;35.492;-97.520;2023-02-13T07:08:01;97310.30;;;8.09;30.88
43480;BME280;29067;35.492;-97.520;2023-02-13T07:10:30;97304.50;;;6.99;31.33
43480;BME280;29067;35.492;-97.520;2023-02-13T07:12:58;97306.17;;;6.18;32.49
43480;BME280;29067;35.492;-97.520;2023-02-13T07:15:26;97301.94;;;6.07;32.05
43480;BME280;29067;35.492;-97.520;2023-02-13T07:17:56;97312.12;;;5.79;33.01
43480;BME280;29067;35.492;-97.520;2023-02-13T07:20:25;97318.20;;;5.32;33.13
43480;BME280;29067;35.492;-97.520;2023-02-13T07:22:57;97323.06;;;5.39;33.44
43480;BME280;29067;35.492;-97.520;2023-02-13T07:25:26;97317.93;;;5.28;33.38
43480;BME280;29067;35.492;-97.520;2023-02-13T07:27:54;97319.09;;;5.82;33.05
43480;BME280;29067;35.492;-97.520;2023-02-13T07:30:27;97322.24;;;5.86;33.46
43480;BME280;29067;35.492;-97.520;2023-02-13T07:32:58;97324.55;;;5.38;34.32
43480;BME280;29067;35.492;-97.520;2023-02-13T07:35:37;97318.66;;;5.38;33.98
43480;BME280;29067;35.492;-97.520;2023-02-13T07:38:05;97318.00;;;5.35;34.56
43480;BME280;29067;35.492;-97.520;2023-02-13T07:40:33;97317.43;;;5.74;34.36
43480;BME280;29067;35.492;-97.520;2023-02-13T07:43:01;97323.32;;;5.86;33.66
43480;BME280;29067;35.492;-97.520;2023-02-13T07:45:29;97325.11;;;4.60;34.41
43480;BME280;29067;35.492;-97.520;2023-02-13T07:47:58;97326.93;;;4.10;34.17
43480;BME280;29067;35.492;-97.520;2023-02-13T07:50:27;97333.84;;;4.59;34.66
43480;BME280;29067;35.492;-97.520;2023-02-13T07:52:56;97332.22;;;4.89;34.85
43480;BME280;29067;35.492;-97.520;2023-02-13T07:55:25;97331.92;;;5.70;34.40
43480;BME280;29067;35.492;-97.520;2023-02-13T07:57:54;97328.46;;;5.60;34.42
43480;BME280;29067;35.492;-97.520;2023-02-13T08:00:23;97324.20;;;4.95;33.99
43480;BME280;29067;35.492;-97.520;2023-02-13T08:02:51;97321.49;;;5.16;34.51
43480;BME280;29067;35.492;-97.520;2023-02-13T08:05:19;97316.35;;;5.28;34.00
43480;BME280;29067;35.492;-97.520;2023-02-13T08:07:47;97311.19;;;5.08;34.25
43480;BME280;29067;35.492;-97.520;2023-02-13T08:10:16;97313.43;;;4.41;35.31
43480;BME280;29067;35.492;-97.520;2023-02-13T08:12:45;97315.26;;;4.17;35.26
43480;BME280;29067;35.492;-97.520;2023-02-13T08:15:14;97306.00;;;5.01;34.71
43480;BME280;29067;35.492;-97.520;2023-02-13T08:17:42;97312.97;;;4.57;35.20
43480;BME280;29067;35.492;-97.520;2023-02-13T08:20:11;97315.77;;;4.03;35.47
43480;BME280;29067;35.492;-97.520;2023-02-13T08:22:39;97317.91;;;3.75;35.59
43480;BME280;29067;35.492;-97.520;2023-02-13T08:25:07;97313.77;;;4.58;35.02
43480;BME280;29067;35.492;-97.520;2023-02-13T08:27:36;97322.60;;;3.37;35.84
43480;BME280;29067;35.492;-97.520;2023-02-13T08:30:06;97327.72;;;4.60;35.34
43480;BME280;29067;35.492;-97.520;2023-02-13T08:32:35;97336.39;;;4.09;35.41
43480;BME280;29067;35.492;-97.520;2023-02-13T08:35:03;97339.17;;;4.07;35.64
43480;BME280;29067;35.492;-97.520;2023-02-13T08:37:33;97342.04;;;2.47;37.46
43480;BME280;29067;35.492;-97.520;2023-02-13T08:40:01;97342.41;;;3.54;37.18
43480;BME280;29067;35.492;-97.520;2023-02-13T08:42:29;97340.94;;;3.74;37.14
43480;BME280;29067;35.492;-97.520;2023-02-13T08:44:58;97341.45;;;3.90;37.23
43480;BME280;29067;35.492;-97.520;2023-02-13T08:47:32;97339.25;;;4.24;36.79
43480;BME280;29067;35.492;-97.520;2023-02-13T08:50:00;97344.11;;;3.27;37.44
43480;BME280;29067;35.492;-97.520;2023-02-13T08:52:29;97347.93;;;3.96;36.34
43480;BME280;29067;35.492;-97.520;2023-02-13T08:54:57;97349.72;;;4.56;36.99
43480;BME280;29067;35.492;-97.520;2023-02-13T08:57:30;97356.28;;;3.08;37.55
43480;BME280;29067;35.492;-97.520;2023-02-13T08:59:59;97354.17;;;2.95;37.65
43480;BME280;29067;35.492;-97.520;2023-02-13T09:02:33;97354.20;;;3.73;37.19
43480;BME280;29067;35.492;-97.520;2023-02-13T09:05:01;97355.12;;;3.01;37.64
43480;BME280;29067;35.492;-97.520;2023-02-13T09:07:29;97353.65;;;3.05;37.75
43480;BME280;29067;35.492;-97.520;2023-02-13T09:09:57;97349.68;;;4.04;37.06
43480;BME280;29067;35.492;-97.520;2023-02-13T09:12:25;97347.02;;;4.87;36.42
43480;BME280;29067;35.492;-97.520;2023-02-13T09:14:53;97347.11;;;4.23;36.81
43480;BME280;29067;35.492;-97.520;2023-02-13T09:17:21;97344.21;;;4.47;36.66
43480;BME280;29067;35.492;-97.520;2023-02-13T09:19:49;97342.86;;;3.77;37.28
43480;BME280;29067;35.492;-97.520;2023-02-13T09:22:17;97343.17;;;2.68;38.17
43480;BME280;29067;35.492;-97.520;2023-02-13T09:24:45;97338.68;;;3.79;37.42
43480;BME280;29067;35.492;-97.520;2023-02-13T09:27:13;97339.15;;;3.47;37.50
43480;BME280;29067;35.492;-97.520;2023-02-13T09:29:41;97338.58;;;3.20;37.91
43480;BME280;29067;35.492;-97.520;2023-02-13T09:32:09;97332.60;;;4.94;37.26
43480;BME280;29067;35.492;-97.520;2023-02-13T09:34:37;97334.52;;;3.89;37.55
43480;BME280;29067;35.492;-97.520;2023-02-13T09:37:05;97331.77;;;1.59;39.38
43480;BME280;29067;35.492;-97.520;2023-02-13T09:39:34;97326.78;;;3.02;38.82
43480;BME280;29067;35.492;-97.520;2023-02-13T09:42:16;97325.71;;;2.76;39.21
43480;BME280;29067;35.492;-97.520;2023-02-13T09:44:48;97326.50;;;2.22;39.87
43480;BME280;29067;35.492;-97.520;2023-02-13T09:47:24;97328.24;;;1.66;40.97
43480;BME280;29067;35.492;-97.520;2023-02-13T09:49:59;97323.12;;;2.53;40.81
43480;BME280;29067;35.492;-97.520;2023-02-13T09:52:33;97323.84;;;1.75;40.86
43480;BME280;29067;35.492;-97.520;2023-02-13T09:55:02;97327.38;;;2.10;41.29
43480;BME280;29067;35.492;-97.520;2023-02-13T09:57:34;97331.93;;;1.90;40.76
43480;BME280;29067;35.492;-97.520;2023-02-13T10:00:08;97333.78;;;1.15;42.08
43480;BME280;29067;35.492;-97.520;2023-02-13T10:03:07;97338.53;;;2.29;41.30
43480;BME280;29067;35.492;-97.520;2023-02-13T10:05:46;97343.36;;;2.15;41.44
43480;BME280;29067;35.492;-97.520;2023-02-13T10:08:28;97352.89;;;1.11;42.67
43480;BME280;29067;35.492;-97.520;2023-02-13T10:11:03;97346.47;;;0.75;43.03
43480;BME280;29067;35.492;-97.520;2023-02-13T10:13:49;97341.45;;;1.94;42.18
43480;BME280;29067;35.492;-97.520;2023-02-13T10:16:23;97337.42;;;3.15;41.31
43480;BME280;29067;35.492;-97.520;2023-02-13T10:18:56;97338.30;;;1.36;42.73
43480;BME280;29067;35.492;-97.520;2023-02-13T10:21:29;97341.98;;;1.07;43.47
43480;BME280;29067;35.492;-97.520;2023-02-13T10:24:04;97333.94;;;3.65;40.87
43480;BME280;29067;35.492;-97.520;2023-02-13T10:26:37;97339.80;;;1.83;41.94
43480;BME280;29067;35.492;-97.520;2023-02-13T10:29:10;97333.47;;;2.57;40.97
43480;BME280;29067;35.492;-97.520;2023-02-13T10:31:42;97327.84;;;1.33;42.61
43480;BME280;29067;35.492;-97.520;2023-02-13T10:34:15;97330.39;;;2.97;41.33
43480;BME280;29067;35.492;-97.520;2023-02-13T10:36:45;97333.74;;;1.54;42.82
43480;BME280;29067;35.492;-97.520;2023-02-13T10:39:22;97338.68;;;1.45;42.46
43480;BME280;29067;35.492;-97.520;2023-02-13T10:41:53;97346.27;;;1.70;43.17
43480;BME280;29067;35.492;-97.520;2023-02-13T10:44:31;97350.23;;;0.37;44.00
43480;BME280;29067;35.492;-97.520;2023-02-13T10:47:12;97350.82;;;1.14;43.79
43480;BME280;29067;35.492;-97.520;2023-02-13T10:49:52;97354.42;;;1.44;43.77
43480;BME280;29067;35.492;-97.520;2023-02-13T10:52:34;97364.74;;;0.88;43.93
43480;BME280;29067;35.492;-97.520;2023-02-13T10:55:14;97364.60;;;1.37;43.82
43480;BME280;29067;35.492;-97.520;2023-02-13T10:58:00;97355.54;;;2.23;42.63
43480;BME280;29067;35.492;-97.520;2023-02-13T11:00:36;97346.81;;;2.81;41.95
43480;BME280;29067;35.492;-97.520;2023-02-13T11:03:04;97342.41;;;2.00;42.31
43480;BME280;29067;35.492;-97.520;2023-02-13T11:05:36;97347.16;;;1.33;43.61
43480;BME280;29067;35.492;-97.520;2023-02-13T11:08:16;97342.51;;;0.98;43.69
43480;BME280;29067;35.492;-97.520;2023-02-13T11:10:45;97339.96;;;2.19;42.73
43480;BME280;29067;35.492;-97.520;2023-02-13T11:13:18;97345.41;;;1.74;42.74
43480;BME280;29067;35.492;-97.520;2023-02-13T11:16:04;97348.00;;;3.24;41.20
43480;BME280;29067;35.492;-97.520;2023-02-13T11:18:35;97351.38;;;2.92;41.62
43480;BME280;29067;35.492;-97.520;2023-02-13T11:21:08;97354.66;;;1.86;43.16
43480;BME280;29067;35.492;-97.520;2023-02-13T11:23:41;97353.52;;;2.98;41.86
43480;BME280;29067;35.492;-97.520;2023-02-13T11:26:13;97355.06;;;3.03;41.16
43480;BME280;29067;35.492;-97.520;2023-02-13T11:28:49;97356.55;;;2.39;41.60
43480;BME280;29067;35.492;-97.520;2023-02-13T11:31:25;97355.46;;;3.64;41.34
43480;BME280;29067;35.492;-97.520;2023-02-13T11:33:54;97356.56;;;2.92;41.67
43480;BME280;29067;35.492;-97.520;2023-02-13T11:36:26;97357.70;;;1.29;42.52
43480;BME280;29067;35.492;-97.520;2023-02-13T11:38:59;97362.06;;;1.49;43.21
43480;BME280;29067;35.492;-97.520;2023-02-13T11:41:29;97362.14;;;2.11;42.96
43480;BME280;29067;35.492;-97.520;2023-02-13T11:43:59;97366.69;;;0.92;44.06
43480;BME280;29067;35.492;-97.520;2023-02-13T11:46:29;97361.12;;;0.43;44.73
43480;BME280;29067;35.492;-97.520;2023-02-13T11:49:16;97360.88;;;1.56;43.85
43480;BME280;29067;35.492;-97.520;2023-02-13T11:51:46;97365.88;;;0.93;44.16
43480;BME280;29067;35.492;-97.520;2023-02-13T11:54:24;97366.81;;;1.38;43.39
43480;BME280;29067;35.492;-97.520;2023-02-13T11:56:56;97369.73;;;0.85;44.27
43480;BME280;29067;35.492;-97.520;2023-02-13T11:59:29;97378.54;;;0.71;45.03
43480;BME280;29067;35.492;-97.520;2023-02-13T12:03:08;97383.06;;;0.44;44.44
43480;BME280;29067;35.492;-97.520;2023-02-13T12:06:01;97380.44;;;1.22;43.68
43480;BME280;29067;35.492;-97.520;2023-02-13T12:08:31;97375.65;;;0.98;43.90
43480;BME280;29067;35.492;-97.520;2023-02-13T12:11:00;97374.86;;;1.74;43.49
43480;BME280;29067;35.492;-97.520;2023-02-13T12:13:33;97370.18;;;1.68;44.33
43480;BME280;29067;35.492;-97.520;2023-02-13T12:16:10;97372.26;;;1.24;43.55
43480;BME280;29067;35.492;-97.520;2023-02-13T12:18:44;97368.29;;;2.31;43.32
43480;BME280;29067;35.492;-97.520;2023-02-13T12:21:35;97378.83;;;-0.46;44.51
43480;BME280;29067;35.492;-97.520;2023-02-13T12:24:16;97379.41;;;0.97;44.91
43480;BME280;29067;35.492;-97.520;2023-02-13T12:26:50;97382.06;;;1.50;44.25
43480;BME280;29067;35.492;-97.520;2023-02-13T12:29:33;97377.27;;;1.19;44.65
43480;BME280;29067;35.492;-97.520;2023-02-13T12:32:17;97380.65;;;0.76;45.07
43480;BME280;29067;35.492;-97.520;2023-02-13T12:35:58;97389.75;;;0.78;45.32
43480;BME280;29067;35.492;-97.520;2023-02-13T12:38:38;97386.41;;;-0.21;45.87
43480;BME280;29067;35.492;-97.520;2023-02-13T12:41:16;97386.95;;;-0.43;46.10
43480;BME280;29067;35.492;-97.520;2023-02-13T12:44:13;97389.29;;;-0.80;46.67
43480;BME280;29067;35.492;-97.520;2023-02-13T12:46:51;97388.61;;;-0.00;46.04
43480;BME280;29067;35.492;-97.520;2023-02-13T12:49:39;97389.72;;;0.56;45.66
43480;BME280;29067;35.492;-97.520;2023-02-13T12:52:21;97390.56;;;0.85;44.56
43480;BME280;29067;35.492;-97.520;2023-02-13T12:55:05;97392.07;;;0.68;44.68
43480;BME280;29067;35.492;-97.520;2023-02-13T12:57:46;97404.44;;;-0.04;45.49
43480;BME280;29067;35.492;-97.520;2023-02-13T13:00:28;97408.48;;;0.35;45.21
43480;BME280;29067;35.492;-97.520;2023-02-13T13:03:18;97414.34;;;-0.09;45.13
43480;BME280;29067;35.492;-97.520;2023-02-13T13:06:01;97418.20;;;0.42;45.26
43480;BME280;29067;35.492;-97.520;2023-02-13T13:08:45;97425.03;;;-0.88;45.69
43480;BME280;29067;35.492;-97.520;2023-02-13T13:11:28;97435.96;;;-0.59;46.68
43480;BME280;29067;35.492;-97.520;2023-02-13T13:14:05;97438.58;;;-0.75;46.25
43480;BME280;29067;35.492;-97.520;2023-02-13T13:16:43;97430.39;;;0.75;44.86